Terminal Aerodrome Forecast
Issued by NWS Jacksonville, FL

Home | Current Version | Previous Version | Text Only | Print | Product List | Glossary On
Versions: 1 2 3 4 5 6 7 8 9 10 11 12 13 14 15 16 17 18 19 20 21 22 23 24 25 26 27 28 29 30 31
000
FTUS42 KJAX 031356 AAC
TAFGNV
TAF AMD
KGNV 031356Z 0314/0412 11004KT 4SM BR OVC005
     FM031500 12007KT P6SM BKN010
     FM031530 14008KT P6SM SCT035
     FM040000 14005KT P6SM SCT035 BKN250
     FM040600 17004KT 3SM BR SCT003=

USA.gov is the U.S. government's official web portal to all federal, state and local government web resources and services.